Time;durP1;ratioP1;P1;durP2;ratioP2;P2;SDS_P1;SDS_P2;PMS_P1;PMS_P2;Temp;Humidity;BMP_temperature;BMP_pressure;BME280_temperature;BME280_humidity;BME280_pressure;Samples;Min_cycle;Max_cycle;Signal;HPM_P1;HPM_P2
2021/12/24 00:01:10;;;;;;;;;;;8.70;99.90;;;8.64;100.00;99856.59;4957380;28;19930;-78
2021/12/24 00:03:40;;;;;;;;;;;8.60;99.90;;;8.62;100.00;99854.91;4972323;28;20032;-79
2021/12/24 00:06:08;;;;;;;;;;;10.50;99.90;;;8.73;100.00;99862.50;4973541;28;19926;-78
2021/12/24 00:08:36;;;;;;;;;;;8.70;99.90;;;8.80;100.00;99862.31;4957803;28;20439;-78
2021/12/24 00:11:04;;;;;;;;;;;8.80;99.90;;;8.83;100.00;99856.13;4957503;28;19994;-78
2021/12/24 00:13:36;;;;;;;;;;;8.90;99.90;;;9.01;100.00;99852.19;4940205;28;19938;-78
2021/12/24 00:16:19;;;;;;;;;;;9.00;99.90;;;9.07;100.00;99852.03;4973313;28;20445;-79
2021/12/24 00:18:54;;;;;;;;;;;9.10;99.90;;;9.06;100.00;99855.56;4959522;28;19934;-78
2021/12/24 00:35:22;;;;;;;;;;;9.70;99.90;;;9.21;100.00;99853.44;4976176;28;19936;-78
2021/12/24 00:37:49;;;;;;;;;;;9.40;99.90;;;9.25;100.00;99855.06;4974347;28;19932;-78
2021/12/24 00:40:18;;;;;;;;;;;9.20;99.90;;;9.22;100.00;99852.53;4973877;28;20414;-78
2021/12/24 00:42:49;;;;;;;;;;;9.20;99.90;;;9.19;100.00;99858.69;4973094;28;19930;-78
2021/12/24 00:45:23;;;;;;;;;;;9.20;99.90;;;9.20;100.00;99847.31;4941730;28;20068;-78
2021/12/24 00:47:51;;;;;;;;;;;9.20;99.90;;;9.21;100.00;99846.44;4957208;28;19970;-78
2021/12/24 00:50:23;;;;;;;;;;;9.20;99.90;;;9.22;100.00;99847.28;4989362;28;20001;-78
2021/12/24 00:52:57;;;;;;;;;;;9.70;99.90;;;9.22;100.00;99836.78;4972282;28;19930;-78
2021/12/24 00:55:28;;;;;;;;;;;9.20;99.90;;;9.24;100.00;99844.63;4972102;28;19926;-78
2021/12/24 00:58:03;;;;;;;;;;;9.30;99.90;;;9.19;100.00;99842.09;4973421;28;19930;-80
2021/12/24 01:00:39;;;;;;;;;;;9.20;99.90;;;9.21;100.00;99833.31;4972972;28;19936;-78
2021/12/24 01:03:09;;;;;;;;;;;9.30;99.90;;;9.14;100.00;99825.63;4954844;28;20016;-77
2021/12/24 01:05:37;;;;;;;;;;;11.50;99.90;;;9.11;100.00;99821.31;4973042;28;19930;-78
2021/12/24 01:08:21;;;;;;;;;;;9.10;99.90;;;9.09;100.00;99820.50;4986983;28;19926;-78
2021/12/24 01:10:56;;;;;;;;;;;9.70;99.90;;;9.07;100.00;99823.16;4972985;28;20562;-80
2021/12/24 01:13:25;;;;;;;;;;;9.20;99.90;;;9.07;100.00;99820.53;4987233;28;20457;-78
2021/12/24 01:16:03;;;;;;;;;;;11.40;99.90;;;9.07;100.00;99817.91;4972022;28;19977;-78
2021/12/24 01:18:48;;;;;;;;;;;10.50;99.90;;;9.03;100.00;99808.41;4971228;28;20021;-78
2021/12/24 01:21:32;;;;;;;;;;;9.90;99.90;;;9.04;100.00;99811.88;4970113;28;19926;-78
2021/12/24 01:24:04;;;;;;;;;;;9.10;99.90;;;9.03;100.00;99813.66;4984080;28;19999;-78
2021/12/24 01:42:43;;;;;;;;;;;9.50;99.90;;;9.14;100.00;99820.38;4987463;28;19930;-78
2021/12/24 01:45:24;;;;;;;;;;;9.20;99.90;;;9.04;100.00;99804.88;4983095;28;19930;-78
2021/12/24 01:47:54;;;;;;;;;;;9.10;99.90;;;9.05;100.00;99806.59;4972335;28;19930;-79
2021/12/24 01:50:25;;;;;;;;;;;9.10;99.90;;;9.06;100.00;99804.84;4974861;28;20020;-78
2021/12/24 01:52:56;;;;;;;;;;;12.00;99.90;;;9.03;100.00;99808.41;4974994;28;19930;-78
2021/12/24 01:55:26;;;;;;;;;;;9.50;99.90;;;9.02;100.00;99801.44;4976497;28;20017;-78
2021/12/24 01:57:53;;;;;;;;;;;9.00;99.90;;;9.01;100.00;99804.97;4992990;28;20355;-78
2021/12/24 02:00:27;;;;;;;;;;;9.20;99.90;;;8.99;100.00;99788.41;5004393;28;19926;-79
2021/12/24 02:02:55;;;;;;;;;;;9.10;99.90;;;9.01;100.00;99801.47;4982570;28;20020;-78
2021/12/24 02:05:23;;;;;;;;;;;9.00;99.90;;;9.01;100.00;99804.97;4977771;28;19933;-79
2021/12/24 02:07:51;;;;;;;;;;;9.00;99.90;;;9.00;100.00;99798.00;4959353;28;20286;-79
2021/12/24 02:10:19;;;;;;;;;;;9.10;99.90;;;9.06;100.00;99795.19;4991729;28;19929;-78
2021/12/24 02:12:47;;;;;;;;;;;9.00;99.90;;;9.04;100.00;99789.13;4991615;28;20642;-79
2021/12/24 02:15:28;;;;;;;;;;;6.50;99.90;;;8.94;100.00;99788.50;4975890;28;19930;-79
2021/12/24 02:18:23;;;;;;;;;;;9.50;99.90;;;8.94;100.00;99801.63;4976200;28;19930;-78
2021/12/24 02:29:38;;;;;;;;;;;9.00;99.90;;;9.02;100.00;99766.44;4992153;28;19930;-78
2021/12/24 02:32:05;;;;;;;;;;;9.10;99.90;;;9.02;100.00;99762.06;4972811;28;20009;-78
2021/12/24 02:34:35;;;;;;;;;;;9.10;99.90;;;9.02;100.00;99756.81;4954178;29;19930;-78
2021/12/24 02:37:03;;;;;;;;;;;9.50;99.90;;;9.02;100.00;99748.06;4971706;28;20017;-79
2021/12/24 02:39:30;;;;;;;;;;;9.10;99.90;;;9.09;100.00;99754.91;4973139;28;19930;-78
2021/12/24 02:42:08;;;;;;;;;;;10.10;99.90;;;9.08;100.00;99751.38;4955953;29;19927;-78
2021/12/24 02:44:36;;;;;;;;;;;9.10;99.90;;;9.14;100.00;99745.13;4969816;28;20037;-79
2021/12/24 02:47:11;;;;;;;;;;;11.50;99.90;;;9.26;100.00;99743.91;4972062;28;19930;-78
2021/12/24 02:55:06;;;;;;;;;;;10.10;99.90;;;9.27;100.00;99744.78;4990720;28;19956;-78
2021/12/24 02:57:34;;;;;;;;;;;9.20;99.90;;;9.22;100.00;99752.78;4974122;28;19930;-77
2021/12/24 03:00:14;;;;;;;;;;;10.50;99.90;;;9.21;100.00;99741.44;4974743;28;20470;-78
2021/12/24 03:02:46;;;;;;;;;;;9.30;99.90;;;9.31;100.00;99756.91;4973913;28;20028;-78
2021/12/24 03:05:16;;;;;;;;;;;10.00;99.90;;;9.33;100.00;99757.72;4957889;28;20029;-78
2021/12/24 03:07:45;;;;;;;;;;;9.30;99.90;;;9.32;100.00;99751.63;4974362;28;20025;-77
2021/12/24 03:10:16;;;;;;;;;;;9.30;99.90;;;9.36;100.00;99750.63;4973344;28;20020;-78
2021/12/24 03:12:46;;;;;;;;;;;9.40;99.90;;;9.36;100.00;99741.88;4972630;28;19926;-78
2021/12/24 03:15:16;;;;;;;;;;;9.30;99.90;;;9.31;100.00;99744.66;4973846;28;19938;-78
2021/12/24 03:17:48;;;;;;;;;;;9.40;99.90;;;9.35;100.00;99740.16;4957944;28;19930;-78
2021/12/24 03:20:15;;;;;;;;;;;9.30;99.90;;;9.40;100.00;99742.66;4958213;28;19957;-79
2021/12/24 03:23:03;;;;;;;;;;;9.30;99.90;;;9.35;100.00;99740.16;4957539;28;19926;-78
2021/12/24 03:25:50;;;;;;;;;;;11.30;99.90;;;9.44;100.00;99741.63;4975338;28;20335;-78
2021/12/24 03:28:18;;;;;;;;;;;9.30;99.90;;;9.37;100.00;99719.97;4974271;28;20654;-78
2021/12/24 03:30:48;;;;;;;;;;;10.00;99.90;;;9.33;100.00;99729.72;4973382;28;20278;-78
2021/12/24 03:33:18;;;;;;;;;;;9.30;99.90;;;9.40;100.00;99738.25;4973377;28;19926;-78
2021/12/24 03:35:45;;;;;;;;;;;9.90;99.90;;;9.31;100.00;99712.28;4975097;28;19953;-78
2021/12/24 03:38:14;;;;;;;;;;;9.10;99.90;;;9.27;100.00;99708.88;4959410;28;19926;-78
2021/12/24 03:40:41;;;;;;;;;;;9.30;99.90;;;9.34;100.00;99709.53;4975302;28;19926;-80
2021/12/24 03:43:09;;;;;;;;;;;9.30;99.90;;;9.38;100.00;99708.56;4962616;28;20307;-80
2021/12/24 03:48:28;;;;;;;;;;;11.90;99.90;;;9.39;100.00;99704.16;4958920;28;19930;-78
2021/12/24 03:51:07;;;;;;;;;;;9.60;99.90;;;9.38;100.00;99708.56;4974016;28;19997;-78
2021/12/24 03:56:24;;;;;;;;;;;9.40;99.90;;;9.40;100.00;99693.63;4972995;28;20016;-79
2021/12/24 03:58:51;;;;;;;;;;;9.40;99.90;;;9.39;100.00;99714.66;4972744;28;19953;-79
2021/12/24 04:01:41;;;;;;;;;;;9.40;99.90;;;9.50;100.00;99712.59;4973436;28;19933;-79
2021/12/24 04:04:27;;;;;;;;;;;10.20;99.90;;;9.45;100.00;99709.25;4961635;28;19932;-79
2021/12/24 04:07:13;;;;;;;;;;;9.50;99.90;;;9.39;100.00;99698.91;4962124;28;19941;-78
2021/12/24 04:13:04;;;;;;;;;;;9.40;99.90;;;9.35;100.00;99696.38;4973729;28;19933;-80
2021/12/24 04:15:31;;;;;;;;;;;9.70;99.90;;;9.41;100.00;99691.84;4991859;28;20284;-80
2021/12/24 04:17:58;;;;;;;;;;;9.30;99.90;;;9.30;100.00;99690.44;4974948;28;19926;-81
2021/12/24 04:25:56;;;;;;;;;;;9.90;99.90;;;9.37;100.00;99685.84;4975666;28;20006;-80
2021/12/24 04:28:24;;;;;;;;;;;9.40;99.90;;;9.40;100.00;99684.88;4991615;28;20286;-81
2021/12/24 04:30:52;;;;;;;;;;;9.20;99.90;;;9.32;100.00;99685.09;4974671;28;19973;-80
2021/12/24 04:33:29;;;;;;;;;;;9.70;99.90;;;9.39;100.00;99672.66;4990046;28;20590;-80
2021/12/24 04:36:11;;;;;;;;;;;9.30;99.90;;;9.35;100.00;99675.38;4991184;28;19937;-81
2021/12/24 04:52:50;;;;;;;;;;;9.40;99.90;;;9.44;100.00;99676.00;4981221;28;20438;-81
2021/12/24 05:03:38;;;;;;;;;;;9.40;99.90;;;9.48;100.00;99677.66;4976258;28;19989;-80
2021/12/24 05:06:12;;;;;;;;;;;9.40;99.90;;;9.49;100.00;99661.81;4963724;28;19977;-80
2021/12/24 05:08:49;;;;;;;;;;;11.00;99.90;;;9.48;100.00;99677.66;4964158;28;20466;-81
2021/12/24 05:11:18;;;;;;;;;;;9.50;99.90;;;9.39;100.00;99659.53;4964714;28;19930;-80
2021/12/24 05:13:46;;;;;;;;;;;11.10;99.90;;;9.39;100.00;99664.78;4978626;28;20377;-80
2021/12/24 05:16:45;;;;;;;;;;;9.80;99.90;;;9.48;100.00;99648.75;4966788;28;19930;-81
2021/12/24 05:22:34;;;;;;;;;;;9.40;99.90;;;9.44;100.00;99648.00;4983724;28;19930;-80
2021/12/24 05:25:08;;;;;;;;;;;9.80;99.90;;;9.49;100.00;99655.72;4964318;28;19930;-80
2021/12/24 05:27:36;;;;;;;;;;;9.40;99.90;;;9.50;100.00;99649.56;4958640;28;19926;-78
2021/12/24 05:30:04;;;;;;;;;;;11.20;99.90;;;9.40;100.00;99666.50;4941768;28;19954;-79
2021/12/24 05:32:31;;;;;;;;;;;9.50;99.90;;;9.41;100.00;99660.34;4958052;28;19997;-80
2021/12/24 05:35:03;;;;;;;;;;;11.00;99.90;;;9.42;100.00;99665.56;4957812;28;20132;-79
2021/12/24 05:37:33;;;;;;;;;;;9.40;99.90;;;9.33;100.00;99664.06;4958639;28;19930;-79
2021/12/24 05:40:04;;;;;;;;;;;9.30;99.90;;;9.34;100.00;99665.78;4958372;28;19934;-79
2021/12/24 05:42:33;;;;;;;;;;;9.30;99.90;;;9.33;100.00;99669.31;4957644;28;19950;-78
2021/12/24 05:45:05;;;;;;;;;;;9.40;99.90;;;9.36;100.00;99669.22;4974051;28;19930;-77
2021/12/24 05:48:07;;;;;;;;;;;8.70;99.90;;;9.40;100.00;99661.25;4974203;28;19952;-79
2021/12/24 05:50:34;;;;;;;;;;;9.60;99.90;;;9.42;100.00;99673.44;4958227;28;19930;-79
2021/12/24 05:53:20;;;;;;;;;;;9.80;99.90;;;9.39;100.00;99676.16;4987665;28;20009;-81
2021/12/24 05:56:13;;;;;;;;;;;9.40;99.90;;;9.41;100.00;99687.47;4955637;28;20013;-79
2021/12/24 05:58:45;;;;;;;;;;;9.40;99.90;;;9.43;100.00;99666.41;4957480;28;19941;-79
2021/12/24 06:01:14;;;;;;;;;;;9.80;99.90;;;9.42;100.00;99670.81;4974713;28;19933;-80
2021/12/24 06:03:47;;;;;;;;;;;9.40;99.90;;;9.46;100.00;99682.09;4987342;28;19981;-80
2021/12/24 06:06:15;;;;;;;;;;;9.40;99.90;;;9.50;100.00;99670.56;4975055;28;20400;-80
2021/12/24 06:08:41;;;;;;;;;;;9.50;99.90;;;9.49;100.00;99674.09;4990084;28;19937;-80
2021/12/24 06:11:08;;;;;;;;;;;9.40;99.90;;;9.50;100.00;99675.81;4974910;28;20298;-80
2021/12/24 06:13:36;;;;;;;;;;;9.40;99.90;;;9.59;100.00;99683.41;4974540;28;19937;-80
2021/12/24 06:16:06;;;;;;;;;;;9.40;99.90;;;9.59;100.00;99686.03;4959018;28;19934;-80
2021/12/24 06:18:37;;;;;;;;;;;9.40;99.90;;;9.59;100.00;99704.41;4959821;28;19981;-80
2021/12/24 06:21:21;;;;;;;;;;;9.50;99.90;;;9.65;100.00;99693.75;4962163;28;19922;-80
2021/12/24 06:23:49;;;;;;;;;;;9.50;99.90;;;9.63;100.00;99697.31;4974165;28;19965;-81
2021/12/24 06:26:18;;;;;;;;;;;9.50;99.90;;;9.67;100.00;99691.03;4974858;28;19933;-80
2021/12/24 06:28:47;;;;;;;;;;;9.60;99.90;;;9.67;100.00;99669.19;4975269;28;20017;-80
2021/12/24 06:31:14;;;;;;;;;;;9.60;99.90;;;9.71;100.00;99663.78;4973958;28;20314;-79
2021/12/24 06:33:41;;;;;;;;;;;9.60;99.90;;;9.65;100.00;99682.34;4975007;28;19993;-80
2021/12/24 06:36:08;;;;;;;;;;;9.80;99.90;;;9.69;100.00;99709.41;4976537;28;20331;-80
2021/12/24 06:38:35;;;;;;;;;;;9.60;99.90;;;9.70;100.00;99695.34;4978229;28;20395;-80
2021/12/24 06:41:02;;;;;;;;;;;9.60;99.90;;;9.68;100.00;99698.03;4976126;28;19926;-80
2021/12/24 06:43:29;;;;;;;;;;;11.00;99.90;;;9.71;100.00;99711.09;4993188;28;20528;-80
2021/12/24 06:45:57;;;;;;;;;;;9.80;99.90;;;9.65;100.00;99709.50;4976627;28;19937;-80
2021/12/24 06:48:24;;;;;;;;;;;9.60;99.90;;;9.77;100.00;99712.66;4960031;28;19934;-79
2021/12/24 06:50:51;;;;;;;;;;;9.70;99.90;;;9.70;100.00;99692.72;4976543;28;19926;-79
2021/12/24 06:53:18;;;;;;;;;;;11.40;99.90;;;9.74;100.00;99717.97;4978482;28;19930;-81
2021/12/24 06:56:04;;;;;;;;;;;9.60;99.90;;;9.70;100.00;99719.00;4978529;28;19977;-80
2021/12/24 06:58:37;;;;;;;;;;;9.70;99.90;;;9.79;100.00;99713.47;4978202;28;19969;-79
2021/12/24 07:01:04;;;;;;;;;;;10.00;99.90;;;9.72;100.00;99711.94;4994063;28;20391;-79
2021/12/24 07:03:33;;;;;;;;;;;9.80;99.90;;;9.73;100.00;99685.63;4993560;28;19933;-80
2021/12/24 07:06:00;;;;;;;;;;;11.20;99.90;;;9.73;100.00;99692.63;4982390;28;19930;-80
2021/12/24 07:08:27;;;;;;;;;;;9.70;99.90;;;9.70;100.00;99682.22;4996719;28;19927;-79
2021/12/24 07:10:54;;;;;;;;;;;10.70;99.90;;;9.70;100.00;99685.72;4977805;28;19940;-79
2021/12/24 07:13:21;;;;;;;;;;;9.60;99.90;;;9.74;100.00;99687.34;4976381;28;19926;-79
2021/12/24 07:15:48;;;;;;;;;;;9.70;99.90;;;9.71;100.00;99683.94;4944461;28;20029;-80
2021/12/24 07:18:15;;;;;;;;;;;9.70;99.90;;;9.68;100.00;99702.44;4976504;28;19936;-79
2021/12/24 07:20:42;;;;;;;;;;;11.60;99.90;;;9.70;100.00;99692.72;4975274;28;20290;-79
2021/12/24 07:23:11;;;;;;;;;;;9.60;99.90;;;9.69;100.00;99697.13;4974876;28;19933;-80
2021/12/24 07:25:38;;;;;;;;;;;9.50;99.90;;;9.64;100.00;99705.16;4976310;28;19933;-80
2021/12/24 07:28:06;;;;;;;;;;;9.60;99.90;;;9.64;100.00;99725.28;4993474;28;19933;-78
2021/12/24 07:30:42;;;;;;;;;;;10.10;99.90;;;9.64;100.00;99702.53;4991277;28;20029;-80
2021/12/24 07:33:09;;;;;;;;;;;9.60;99.90;;;9.63;100.00;99715.69;4994690;28;19926;-80
2021/12/24 07:35:36;;;;;;;;;;;9.60;99.90;;;9.66;100.00;99710.34;4978305;28;19926;-80
2021/12/24 07:38:03;;;;;;;;;;;12.40;99.90;;;9.69;100.00;99691.00;4994590;28;19934;-81
2021/12/24 07:40:30;;;;;;;;;;;9.60;99.90;;;9.67;100.00;99682.31;4977838;28;19941;-80
2021/12/24 07:42:57;;;;;;;;;;;9.50;99.90;;;9.67;100.00;99683.16;4961718;28;20456;-80
2021/12/24 07:45:24;;;;;;;;;;;9.60;99.90;;;9.68;100.00;99687.53;4977557;28;19926;-80
2021/12/24 07:48:07;;;;;;;;;;;9.50;99.90;;;9.62;100.00;99696.47;4960670;28;19958;-80
2021/12/24 07:53:07;;;;;;;;;;;10.60;99.90;;;9.64;100.00;99660.50;4975187;28;19933;-80
2021/12/24 07:55:35;;;;;;;;;;;9.60;99.90;;;9.64;100.00;99657.88;4974939;28;20289;-78
2021/12/24 07:58:03;;;;;;;;;;;10.60;99.90;;;9.67;100.00;99659.53;4958871;28;19933;-79
2021/12/24 08:00:30;;;;;;;;;;;9.60;99.90;;;9.67;100.00;99666.56;4959854;28;19942;-80
2021/12/24 08:02:58;;;;;;;;;;;10.50;99.90;;;9.60;100.00;99687.78;4974475;28;19988;-80
2021/12/24 08:05:28;;;;;;;;;;;10.00;99.90;;;9.63;100.00;99685.06;4956966;28;19980;-79
2021/12/24 08:08:01;;;;;;;;;;;9.50;99.90;;;9.67;100.00;99672.66;4964719;28;19930;-79
2021/12/24 08:10:30;;;;;;;;;;;9.50;99.90;;;9.66;100.00;99678.81;4971324;28;19930;-79
2021/12/24 08:12:57;;;;;;;;;;;9.60;99.90;;;9.61;100.00;99683.38;4969817;28;19964;-79
2021/12/24 08:15:24;;;;;;;;;;;9.50;99.90;;;9.62;100.00;99691.22;4974658;28;19930;-80
2021/12/24 08:17:51;;;;;;;;;;;9.50;99.90;;;9.62;100.00;99691.22;4974643;28;19989;-79
2021/12/24 08:20:23;;;;;;;;;;;9.50;99.90;;;9.65;100.00;99695.50;4974520;28;20334;-79
2021/12/24 08:22:55;;;;;;;;;;;9.50;99.90;;;9.68;100.00;99689.28;4988974;28;19930;-80
2021/12/24 08:25:23;;;;;;;;;;;10.00;99.90;;;9.64;100.00;99701.66;4957727;28;20256;-79
2021/12/24 08:27:51;;;;;;;;;;;10.00;99.90;;;9.69;100.00;99696.25;4959119;28;19953;-78
2021/12/24 08:30:18;;;;;;;;;;;9.70;99.90;;;9.70;100.00;99683.09;4982375;28;20414;-78
2021/12/24 08:32:45;;;;;;;;;;;9.60;99.90;;;9.75;100.00;99691.69;4978916;28;19936;-78
2021/12/24 08:35:15;;;;;;;;;;;11.30;99.90;;;9.76;100.00;99687.31;4979658;28;19930;-78
2021/12/24 08:37:42;;;;;;;;;;;9.60;99.90;;;9.72;100.00;99689.16;4988444;28;20029;-79
2021/12/24 08:40:10;;;;;;;;;;;10.00;99.90;;;9.78;100.00;99702.09;4983112;28;19934;-77
2021/12/24 08:42:37;;;;;;;;;;;9.60;99.90;;;9.68;100.00;99691.91;4966183;28;19964;-78
2021/12/24 08:45:05;;;;;;;;;;;9.50;99.90;;;9.77;100.00;99696.91;4981724;28;20347;-78
2021/12/24 08:47:32;;;;;;;;;;;9.60;99.90;;;9.77;100.00;99684.59;4980866;28;19950;-78
2021/12/24 08:49:59;;;;;;;;;;;9.60;99.90;;;9.72;100.00;99683.91;4980819;28;19926;-78
2021/12/24 08:52:26;;;;;;;;;;;9.60;99.90;;;9.76;100.00;99684.69;4966430;28;20349;-77
2021/12/24 08:54:53;;;;;;;;;;;7.10;99.90;;;9.75;100.00;99686.44;4981258;28;20002;-78
2021/12/24 08:57:20;;;;;;;;;;;9.60;99.90;;;9.71;100.00;99687.44;4983093;28;19954;-78
2021/12/24 08:59:47;;;;;;;;;;;10.20;99.90;;;9.68;100.00;99684.91;4967405;28;19933;-77
2021/12/24 09:02:17;;;;;;;;;;;9.60;99.90;;;9.80;100.00;99691.53;4947090;29;19931;-77
2021/12/24 09:04:44;;;;;;;;;;;10.00;99.90;;;9.74;100.00;99682.09;4971034;28;19934;-77
2021/12/24 09:07:11;;;;;;;;;;;9.60;99.90;;;9.79;100.00;99684.56;4980130;28;19938;-78
2021/12/24 09:09:38;;;;;;;;;;;9.20;99.90;;;9.77;100.00;99678.50;4962999;29;19934;-78
2021/12/24 09:12:06;;;;;;;;;;;9.70;99.90;;;9.76;100.00;99675.00;4987556;28;20013;-78
2021/12/24 09:14:33;;;;;;;;;;;9.70;99.90;;;9.74;100.00;99692.59;4978955;28;19988;-77
2021/12/24 09:17:02;;;;;;;;;;;9.70;99.90;;;9.71;100.00;99686.56;4973769;28;19936;-78
2021/12/24 09:19:31;;;;;;;;;;;9.60;99.90;;;9.64;100.00;99699.91;4973264;28;20013;-78
2021/12/24 09:21:58;;;;;;;;;;;9.60;99.90;;;9.72;100.00;99683.91;4970973;28;19931;-77
2021/12/24 09:24:27;;;;;;;;;;;10.10;99.90;;;9.76;100.00;99674.16;4973085;28;19957;-78
2021/12/24 09:26:56;;;;;;;;;;;10.00;99.90;;;9.73;100.00;99683.00;4956370;28;19938;-77
2021/12/24 09:29:25;;;;;;;;;;;9.60;99.90;;;9.75;100.00;99681.16;4975999;28;20017;-77
2021/12/24 09:31:52;;;;;;;;;;;9.50;99.90;;;9.78;100.00;99667.94;4970821;28;19974;-77
2021/12/24 09:34:19;;;;;;;;;;;9.60;99.90;;;9.83;100.00;99665.16;4966145;28;20494;-77
2021/12/24 09:36:46;;;;;;;;;;;9.60;99.90;;;9.81;100.00;99676.63;4972573;28;19922;-76
2021/12/24 09:39:14;;;;;;;;;;;9.70;99.90;;;9.81;100.00;99671.38;4998595;28;19929;-78
2021/12/24 09:41:41;;;;;;;;;;;9.70;99.90;;;9.86;100.00;99672.09;4946523;28;20478;-77
2021/12/24 09:44:08;;;;;;;;;;;9.70;99.90;;;9.87;100.00;99679.06;4955306;28;20295;-78
2021/12/24 09:46:40;;;;;;;;;;;9.70;99.90;;;9.81;100.00;99681.88;4978884;28;19926;-78
2021/12/24 09:49:09;;;;;;;;;;;9.70;99.90;;;9.87;100.00;99689.59;4975955;28;19930;-79
2021/12/24 09:51:41;;;;;;;;;;;9.70;99.90;;;9.79;100.00;99685.41;4988576;28;19965;-79
2021/12/24 09:54:14;;;;;;;;;;;9.80;99.90;;;9.88;100.00;99686.03;4971191;28;19930;-78
2021/12/24 09:56:41;;;;;;;;;;;9.70;99.90;;;9.89;100.00;99690.38;4989594;28;19949;-80
2021/12/24 09:59:08;;;;;;;;;;;9.80;99.90;;;9.91;100.00;99680.69;4973565;28;19930;-79
2021/12/24 10:01:40;;;;;;;;;;;10.70;99.90;;;9.96;100.00;99672.66;4957226;28;19926;-79
2021/12/24 10:04:15;;;;;;;;;;;9.70;99.90;;;9.88;100.00;99676.38;4982551;28;19932;-78
2021/12/24 10:06:53;;;;;;;;;;;9.80;99.90;;;9.95;100.00;99678.81;4972285;28;20021;-79
2021/12/24 10:09:27;;;;;;;;;;;9.70;99.90;;;9.93;100.00;99676.22;4953754;28;19936;-78
2021/12/24 10:12:04;;;;;;;;;;;9.80;99.90;;;9.88;100.00;99673.75;4962850;28;19942;-79
2021/12/24 10:14:56;;;;;;;;;;;9.80;99.90;;;9.90;100.00;99686.84;4957865;28;20016;-78
2021/12/24 10:17:33;;;;;;;;;;;9.80;99.90;;;9.85;100.00;99678.25;4961741;28;19934;-78
2021/12/24 10:20:16;;;;;;;;;;;7.90;99.90;;;9.90;100.00;99673.72;4961242;28;19930;-79
2021/12/24 10:22:50;;;;;;;;;;;9.80;99.90;;;9.87;100.00;99676.44;4977558;28;19955;-81
2021/12/24 10:25:25;;;;;;;;;;;9.80;99.90;;;9.82;100.00;99666.06;4941850;28;19926;-78
2021/12/24 10:27:55;;;;;;;;;;;9.80;99.90;;;9.91;100.00;99663.16;4977618;28;19926;-82
2021/12/24 10:30:30;;;;;;;;;;;9.80;99.90;;;9.95;100.00;99669.16;4957450;28;19957;-81
2021/12/24 10:33:10;;;;;;;;;;;9.80;99.90;;;9.91;100.00;99663.16;4954821;29;19934;-78
2021/12/24 10:35:38;;;;;;;;;;;9.80;99.90;;;9.87;100.00;99677.28;4962919;28;19933;-78
2021/12/24 10:38:17;;;;;;;;;;;11.70;99.90;;;9.98;100.00;99681.34;4975243;28;20403;-79
2021/12/24 10:40:49;;;;;;;;;;;9.80;99.90;;;10.01;100.00;99668.09;4971941;28;19938;-79
2021/12/24 10:43:30;;;;;;;;;;;8.90;99.90;;;9.91;100.00;99668.41;4964105;28;20502;-77
2021/12/24 10:46:12;;;;;;;;;;;10.20;99.90;;;9.93;100.00;99650.81;4954252;29;20005;-77
2021/12/24 10:48:48;;;;;;;;;;;9.80;99.90;;;9.94;100.00;99649.03;4970319;28;19935;-79
2021/12/24 10:51:31;;;;;;;;;;;9.80;99.90;;;9.89;100.00;99656.22;4968782;28;19930;-80
2021/12/24 10:54:06;;;;;;;;;;;9.80;99.90;;;9.97;100.00;99653.34;4980962;28;20410;-79
2021/12/24 10:56:33;;;;;;;;;;;9.80;99.90;;;9.85;100.00;99660.72;4962650;28;20052;-77
2021/12/24 10:59:00;;;;;;;;;;;10.40;99.90;;;9.77;100.00;99647.81;4961207;28;20369;-80
2021/12/24 11:01:27;;;;;;;;;;;9.70;99.90;;;9.86;100.00;99657.19;4985288;28;20249;-80
2021/12/24 11:03:54;;;;;;;;;;;10.50;99.90;;;9.91;100.00;99660.53;4973775;28;20415;-80
2021/12/24 11:06:28;;;;;;;;;;;9.80;99.90;;;9.97;100.00;99653.34;4995989;28;19997;-77
2021/12/24 11:08:59;;;;;;;;;;;9.70;99.90;;;9.94;100.00;99649.03;4987327;28;19941;-80
2021/12/24 11:11:35;;;;;;;;;;;9.80;99.90;;;9.88;100.00;99646.63;4974544;28;19926;-78
2021/12/24 11:14:03;;;;;;;;;;;9.80;99.90;;;9.88;100.00;99646.63;4976297;28;19930;-82
2021/12/24 11:16:33;;;;;;;;;;;9.80;99.90;;;9.75;100.00;99630.38;4959418;28;19930;-80
2021/12/24 11:19:03;;;;;;;;;;;11.60;99.90;;;9.75;100.00;99633.88;4960018;28;19930;-80
2021/12/24 11:21:32;;;;;;;;;;;7.80;99.90;;;9.84;100.00;99635.34;4973388;28;19957;-80
2021/12/24 11:23:59;;;;;;;;;;;12.40;99.90;;;9.83;100.00;99631.00;4958077;28;20368;-78
2021/12/24 11:26:28;;;;;;;;;;;9.60;99.90;;;9.68;100.00;99634.13;4973437;28;19926;-81
2021/12/24 11:28:57;;;;;;;;;;;9.60;99.90;;;9.71;100.00;99632.28;4973788;28;20380;-81
2021/12/24 11:31:29;;;;;;;;;;;9.90;99.90;;;9.67;100.00;99637.66;4959939;28;19926;-81
2021/12/24 11:33:58;;;;;;;;;;;9.60;99.90;;;9.67;100.00;99643.75;4973452;28;19926;-77
2021/12/24 11:36:27;;;;;;;;;;;9.60;99.90;;;9.69;100.00;99643.72;4971892;28;19934;-78
2021/12/24 11:38:59;;;;;;;;;;;9.60;99.90;;;9.60;100.00;99647.50;4974293;28;20026;-79
2021/12/24 11:41:30;;;;;;;;;;;9.50;99.90;;;9.50;100.00;99645.16;4953349;29;20475;-80
2021/12/24 11:44:01;;;;;;;;;;;9.50;99.90;;;9.54;100.00;99645.09;4970806;28;19934;-78
2021/12/24 11:46:28;;;;;;;;;;;9.50;99.90;;;9.57;100.00;99631.84;4973071;28;19937;-78
2021/12/24 11:48:58;;;;;;;;;;;9.30;99.90;;;9.52;100.00;99624.13;4973927;28;20593;-79
2021/12/24 11:51:30;;;;;;;;;;;9.40;99.90;;;9.57;100.00;99609.06;4988498;28;19940;-78
2021/12/24 11:54:08;;;;;;;;;;;9.40;99.90;;;9.58;100.00;99602.06;4972096;28;20327;-80
2021/12/24 11:56:42;;;;;;;;;;;9.50;99.90;;;9.65;100.00;99586.03;4970896;28;19930;-78
2021/12/24 11:59:12;;;;;;;;;;;9.50;99.90;;;9.64;100.00;99586.97;4971902;28;19937;-78
2021/12/24 12:01:42;;;;;;;;;;;9.40;99.90;;;9.64;100.00;99586.97;4986739;28;19930;-78
2021/12/24 12:04:20;;;;;;;;;;;9.60;99.90;;;9.65;100.00;99582.53;4954333;28;19969;-80
2021/12/24 12:07:17;;;;;;;;;;;9.50;99.90;;;9.73;100.00;99592.81;4956680;28;19972;-79
2021/12/24 12:09:46;;;;;;;;;;;9.50;99.90;;;9.67;100.00;99579.88;4987643;28;20529;-80
2021/12/24 12:12:16;;;;;;;;;;;9.50;99.90;;;9.69;100.00;99602.56;4963821;28;19958;-80
2021/12/24 12:14:43;;;;;;;;;;;9.50;99.90;;;9.76;100.00;99588.31;4976495;28;20450;-80
2021/12/24 12:17:21;;;;;;;;;;;9.60;99.90;;;9.71;100.00;99585.00;4977087;28;20025;-81
2021/12/24 12:19:58;;;;;;;;;;;9.60;99.90;;;9.66;100.00;99579.00;4976455;28;19957;-78
2021/12/24 12:25:10;;;;;;;;;;;9.60;99.90;;;9.78;100.00;99577.75;4970692;28;19926;-79
2021/12/24 12:27:54;;;;;;;;;;;7.80;99.90;;;9.67;100.00;99570.22;5003852;28;19926;-79
2021/12/24 12:30:21;;;;;;;;;;;9.60;99.90;;;9.65;100.00;99558.91;4968464;28;19933;-78
2021/12/24 12:32:50;;;;;;;;;;;9.50;99.90;;;9.66;100.00;99547.50;4962084;28;20017;-80
2021/12/24 12:35:17;;;;;;;;;;;9.50;99.90;;;9.71;100.00;99566.59;4956638;28;19927;-80
2021/12/24 12:37:47;;;;;;;;;;;9.50;99.90;;;9.73;100.00;99569.16;4953119;29;20534;-78
2021/12/24 12:40:17;;;;;;;;;;;9.50;99.90;;;9.72;100.00;99565.69;4961428;28;19934;-78
2021/12/24 12:42:55;;;;;;;;;;;9.60;99.90;;;9.67;100.00;99564.97;4971447;28;20348;-77
2021/12/24 12:45:38;;;;;;;;;;;9.50;99.90;;;9.54;100.00;99576.81;4988986;28;20749;-77
2021/12/24 12:48:08;;;;;;;;;;;9.50;99.90;;;9.59;100.00;99565.22;4964045;28;20399;-78
2021/12/24 12:50:36;;;;;;;;;;;9.40;99.90;;;9.62;100.00;99565.16;4989187;28;19934;-79
2021/12/24 12:53:22;;;;;;;;;;;9.50;99.90;;;9.70;100.00;99562.25;4980835;28;20387;-79
2021/12/24 12:56:10;;;;;;;;;;;9.50;99.90;;;9.67;100.00;99556.25;4972000;28;19930;-78
2021/12/24 12:58:37;;;;;;;;;;;9.90;99.90;;;9.72;100.00;99552.56;4971553;28;20016;-79
2021/12/24 13:01:14;;;;;;;;;;;9.60;99.90;;;9.75;100.00;99559.44;4956874;28;19937;-78
2021/12/24 13:04:00;;;;;;;;;;;11.00;99.90;;;9.74;100.00;99550.72;4988005;28;19926;-78
2021/12/24 13:06:36;;;;;;;;;;;9.60;99.90;;;9.63;100.00;99553.72;4973549;28;19961;-77
2021/12/24 13:09:06;;;;;;;;;;;9.50;99.90;;;9.67;100.00;99540.47;4989442;28;19936;-79
2021/12/24 13:11:35;;;;;;;;;;;9.60;99.90;;;9.69;100.00;99544.78;4965716;28;19930;-79
2021/12/24 13:14:03;;;;;;;;;;;9.50;99.90;;;9.62;100.00;99546.75;4976296;28;20088;-78